Aeroporto :
LOGIN :

Iscrizione | Disclaimer

   EN    FR    IT 

 










Sommario :    VFR   VFR Marginale   IFR   IFR Intensivo   IFR Molto Intensivo
Visibilità : 
Base nubi : 
>= 8 km
>= 3000ft
5 / 8 km
1000 / 3000 ft
1500m / 5 km
500 / 1000 ft
800 / 1500m
200 / 500 ft
< 800m
< 200 ft
Simboli :   Temporali  Nebbia  Neve Forte  Precipitazioni Forti  Vento > 20 kt
SIGMETs :   Varie  Temporali  Ghiacco  Turbolenza  Onda orograficha  Ceneri Vulcaniche






- Altitudine del aeroporto : 242 ft
- Codice IATA : DUB


EIDW - Dublin

ULTIMO METAR :
  • 200630Z 08013KT 9999 FEW016 BKN018 12/09 Q1022 NOSIG

METARs OBSOLETI :
  • 200600Z 07014KT 9999 SCT015 BKN019 12/09 Q1022 NOSIG
  • 200530Z 07013KT 9999 FEW014 BKN017 BKN020 12/10 Q1022 NOSIG
  • 200500Z 07014KT 9999 BKN014 BKN018 12/10 Q1022 NOSIG
  • 200430Z 09012KT 9999 SCT014 BKN017 12/10 Q1022 NOSIG
  • 200400Z 07013KT 9999 FEW013 BKN016 BKN019 12/10 Q1022 NOSIG

TAF COR TAF EIDW
Valido dal 20 a 06 ore il 21 a 06 ore UTC


200502Z 2006/2106 07012KT 9999 FEW015 SCT020
TEMPO 2006/2010 BKN014
PROB40
TEMPO 2100/2106 3000 BR



MetMap, La meteo Aeronautica in un colpo d'occhio ! - Copyright ORBIFLY Dicembre 2007 - Disclaimer

ORBIFLY MET'MAP TEAM :

Programmazione e sviluppo : Alexandra Zaïnal
Concezione : Baudouin d'Aumeries
Aiuto per la programmazione : Marc-Olivier Méhu
Supporto tecnico e logistico : Manuel Goepfert
Aiuto per la traduzione : Arnaldo La Scala

Contatto : metmap@orbifly.com




FONTI E CREDITI :

   NOAA